createdAt,value
2018-06-05T00:01:58.483Z,85.91
2018-06-05T00:04:27.180Z,86.08
2018-06-05T00:06:56.047Z,85.90
2018-06-05T00:09:24.638Z,86.19
2018-06-05T00:11:53.270Z,86.47
2018-06-05T00:14:21.832Z,86.15
2018-06-05T00:16:50.548Z,86.88
2018-06-05T00:19:19.305Z,86.74
2018-06-05T00:21:47.838Z,86.66
2018-06-05T00:24:16.538Z,86.53
2018-06-05T00:26:45.917Z,86.92
2018-06-05T00:29:14.464Z,86.45
2018-06-05T00:31:43.322Z,86.87
2018-06-05T00:34:12.108Z,86.92
2018-06-05T00:36:40.671Z,86.89
2018-06-05T00:39:09.267Z,86.93
2018-06-05T00:41:37.885Z,86.58
2018-06-05T00:44:06.604Z,86.79
2018-06-05T00:46:35.182Z,86.75
2018-06-05T00:49:03.942Z,87.22
2018-06-05T00:51:43.573Z,86.87
2018-06-05T00:54:13.311Z,86.48
2018-06-05T00:56:42.527Z,86.22
2018-06-05T00:59:11.728Z,85.67
2018-06-05T01:01:40.566Z,85.88
2018-06-05T01:04:09.338Z,86.40
2018-06-05T01:06:38.263Z,86.61
2018-06-05T01:09:08.478Z,86.88
2018-06-05T01:11:37.789Z,87.06
2018-06-05T01:14:06.628Z,86.97
2018-06-05T01:16:35.326Z,87.24
2018-06-05T01:19:03.992Z,87.38
2018-06-05T01:21:32.650Z,87.57
2018-06-05T01:24:02.144Z,87.77
2018-06-05T01:26:31.063Z,87.88
2018-06-05T01:29:00.442Z,88.34
2018-06-05T01:31:29.032Z,88.17
2018-06-05T01:33:57.758Z,87.96
2018-06-05T01:36:26.325Z,88.51
2018-06-05T01:38:55.336Z,88.39
2018-06-05T01:41:23.957Z,87.98
2018-06-05T01:43:52.659Z,88.09
2018-06-05T01:46:21.552Z,88.30
2018-06-05T01:48:50.085Z,88.30
2018-06-05T01:51:19.582Z,88.20
2018-06-05T01:53:48.253Z,88.48
2018-06-05T01:56:16.918Z,88.34
2018-06-05T01:58:45.640Z,88.36
2018-06-05T02:01:14.399Z,88.13
2018-06-05T02:03:43.541Z,88.60
2018-06-05T02:06:12.219Z,88.89
2018-06-05T02:08:41.033Z,89.02
2018-06-05T02:11:09.635Z,88.97
2018-06-05T02:13:39.658Z,88.70
2018-06-05T02:16:11.459Z,88.79
2018-06-05T02:18:42.045Z,89.31
2018-06-05T02:21:11.747Z,88.95
2018-06-05T02:23:42.997Z,89.05
2018-06-05T02:26:12.385Z,89.55
2018-06-05T02:28:41.203Z,89.54
2018-06-05T02:31:09.824Z,89.06
2018-06-05T02:33:38.421Z,89.16
2018-06-05T02:36:07.050Z,89.72
2018-06-05T02:38:35.724Z,89.50
2018-06-05T02:41:04.353Z,89.99
2018-06-05T02:43:33.059Z,89.96
2018-06-05T02:46:01.974Z,90.17
2018-06-05T02:48:30.530Z,90.10
2018-06-05T02:50:59.143Z,90.11
2018-06-05T02:53:27.773Z,89.78
2018-06-05T02:55:56.459Z,90.07
2018-06-05T02:58:24.980Z,89.85
2018-06-05T03:00:53.678Z,89.63
2018-06-05T03:03:22.428Z,89.99
2018-06-05T03:05:51.390Z,90.41
2018-06-05T03:08:20.025Z,90.23
2018-06-05T03:10:48.679Z,89.87
2018-06-05T03:13:17.576Z,90.16
2018-06-05T03:15:47.036Z,89.99
2018-06-05T03:18:15.694Z,90.29
2018-06-05T03:20:44.520Z,89.85
2018-06-05T03:23:13.154Z,90.03
2018-06-05T03:25:42.010Z,90.40
2018-06-05T03:28:10.651Z,90.40
2018-06-05T03:30:39.529Z,90.86
2018-06-05T03:33:08.044Z,90.60
2018-06-05T03:35:36.648Z,90.55
2018-06-05T03:38:05.363Z,91.01
2018-06-05T03:40:34.574Z,90.41
2018-06-05T03:43:03.876Z,90.19
2018-06-05T03:45:32.569Z,90.35
2018-06-05T03:48:01.168Z,90.08
2018-06-05T03:50:29.765Z,90.55
2018-06-05T03:52:58.489Z,90.67
2018-06-05T03:55:27.766Z,90.81
2018-06-05T03:57:56.400Z,90.75
2018-06-05T04:00:25.002Z,90.32
2018-06-05T04:02:53.499Z,90.71
2018-06-05T04:05:22.419Z,90.22
2018-06-05T04:07:51.694Z,89.93
2018-06-05T04:10:20.410Z,89.48
2018-06-05T04:12:49.078Z,89.52
2018-06-05T04:15:17.669Z,89.67
2018-06-05T04:17:46.230Z,89.64
2018-06-05T04:20:14.863Z,89.39
2018-06-05T04:22:43.488Z,89.82
2018-06-05T04:25:12.621Z,89.77
2018-06-05T04:27:41.216Z,89.24
2018-06-05T04:30:10.054Z,89.08
2018-06-05T04:32:38.906Z,88.67
2018-06-05T04:35:08.571Z,88.00
2018-06-05T04:37:37.220Z,87.91
2018-06-05T04:40:05.850Z,87.74
2018-06-05T04:42:34.411Z,87.44
2018-06-05T04:45:03.081Z,87.14
2018-06-05T04:47:31.951Z,87.56
2018-06-05T04:50:00.616Z,87.71
2018-06-05T04:52:29.271Z,87.29
2018-06-05T04:54:57.819Z,86.34
2018-06-05T04:57:26.649Z,85.43
2018-06-05T04:59:55.974Z,84.89
2018-06-05T05:02:24.693Z,83.54
2018-06-05T05:04:53.305Z,83.45
2018-06-05T05:07:21.870Z,82.79
2018-06-05T05:09:51.556Z,81.38
2018-06-05T05:12:20.100Z,82.04
2018-06-05T05:14:48.791Z,81.35
2018-06-05T05:17:17.634Z,79.80
2018-06-05T05:19:46.084Z,78.76
2018-06-05T05:22:14.939Z,76.40
2018-06-05T05:24:44.350Z,74.42
2018-06-05T05:27:13.014Z,71.41
2018-06-05T05:29:42.618Z,67.59
2018-06-05T05:32:11.451Z,64.72
2018-06-05T05:37:07.454Z,61.54
2018-06-05T05:39:36.091Z,60.78
2018-06-05T05:42:04.821Z,59.45
2018-06-05T05:44:33.567Z,60.49
2018-06-05T05:47:02.295Z,60.34
2018-06-05T05:49:30.974Z,59.61
2018-06-05T05:51:59.788Z,58.48
2018-06-05T05:54:28.445Z,56.05
2018-06-05T05:56:57.255Z,55.44
2018-06-05T05:59:25.862Z,55.78
2018-06-05T06:01:54.660Z,53.95
2018-06-05T06:04:23.625Z,53.70
2018-06-05T06:06:52.412Z,52.89
2018-06-05T06:09:21.354Z,50.05
2018-06-05T06:11:50.736Z,47.68
2018-06-05T06:14:19.824Z,50.50
2018-06-05T06:16:48.430Z,47.95
2018-06-05T06:19:17.290Z,46.10
2018-06-05T06:21:45.964Z,44.15
2018-06-05T06:24:14.820Z,43.59
2018-06-05T06:26:43.681Z,42.53
2018-06-05T06:29:12.317Z,42.86
2018-06-05T06:31:40.908Z,39.56
2018-06-05T06:34:09.490Z,40.72
2018-06-05T06:36:38.252Z,41.54
2018-06-05T06:39:10.246Z,41.02
2018-06-05T06:41:39.310Z,41.94
2018-06-05T06:44:07.998Z,41.24
2018-06-05T06:46:36.796Z,41.41
2018-06-05T06:49:06.130Z,40.75
2018-06-05T06:51:34.776Z,40.85
2018-06-05T06:54:02.610Z,41.23
2018-06-05T06:56:31.901Z,39.67
2018-06-05T06:59:00.582Z,38.00
2018-06-05T07:01:29.347Z,36.84
2018-06-05T07:03:58.037Z,37.43
2018-06-05T07:06:25.917Z,36.18
2018-06-05T07:08:54.890Z,35.57
2018-06-05T07:11:23.778Z,35.65
2018-06-05T07:13:51.575Z,37.35
2018-06-05T07:16:19.340Z,36.97
2018-06-05T07:18:47.077Z,34.36
2018-06-05T07:21:16.022Z,33.30
2018-06-05T07:23:44.646Z,33.54
2018-06-05T07:26:13.537Z,33.51
2018-06-05T07:28:42.800Z,32.18
2018-06-05T07:31:11.812Z,33.14
2018-06-05T07:33:40.507Z,33.15
2018-06-05T07:36:09.250Z,35.63
2018-06-05T07:38:37.976Z,39.69
2018-06-05T07:41:07.103Z,41.84
2018-06-05T07:43:35.839Z,39.26
2018-06-05T07:46:05.148Z,37.38
2018-06-05T07:48:34.848Z,36.88
2018-06-05T07:51:03.557Z,35.47
2018-06-05T07:53:32.276Z,33.41
2018-06-05T07:56:01.223Z,32.50
2018-06-05T07:58:29.757Z,30.84
2018-06-05T08:00:58.753Z,29.31
2018-06-05T08:03:27.527Z,28.79
2018-06-05T08:05:56.071Z,28.78
2018-06-05T08:08:24.668Z,29.15
2018-06-05T08:10:53.618Z,28.84
2018-06-05T08:13:22.326Z,31.55
2018-06-05T08:15:51.357Z,33.06
2018-06-05T08:18:20.019Z,30.78
2018-06-05T08:20:48.717Z,30.50
2018-06-05T08:23:17.514Z,29.18
2018-06-05T08:25:46.801Z,26.72
2018-06-05T08:28:15.399Z,26.95
2018-06-05T08:30:44.236Z,27.09
2018-06-05T08:33:13.692Z,27.95
2018-06-05T08:35:42.351Z,26.76
2018-06-05T08:38:10.936Z,25.34
2018-06-05T08:40:39.708Z,24.82
2018-06-05T08:43:08.400Z,25.63
2018-06-05T08:45:37.076Z,23.84
2018-06-05T08:48:05.897Z,25.61
2018-06-05T08:50:34.598Z,25.05
2018-06-05T08:53:03.433Z,23.61
2018-06-05T08:55:31.938Z,23.15
2018-06-05T08:58:00.448Z,22.92
2018-06-05T09:00:29.302Z,23.36
2018-06-05T09:02:57.913Z,21.42
2018-06-05T09:05:26.920Z,21.38
2018-06-05T09:07:55.771Z,21.80
2018-06-05T09:10:24.497Z,20.13
2018-06-05T09:12:53.271Z,20.66
2018-06-05T09:15:21.869Z,21.91
2018-06-05T09:17:51.201Z,20.41
2018-06-05T09:20:19.878Z,19.27
2018-06-05T09:22:48.617Z,19.49
2018-06-05T09:25:17.989Z,19.62
2018-06-05T09:27:46.919Z,18.02
2018-06-05T09:30:15.749Z,20.19
2018-06-05T09:32:44.516Z,19.33
2018-06-05T09:35:13.248Z,19.73
2018-06-05T09:37:42.652Z,18.75
2018-06-05T09:40:11.344Z,19.40
2018-06-05T09:42:40.323Z,17.93
2018-06-05T09:45:09.527Z,18.62
2018-06-05T09:47:38.882Z,18.70
2018-06-05T09:50:07.594Z,17.38
2018-06-05T09:52:36.207Z,16.09
2018-06-05T09:55:05.489Z,17.80
2018-06-05T09:57:34.103Z,17.13
2018-06-05T10:00:02.896Z,17.11
2018-06-05T10:02:31.643Z,17.07
2018-06-05T10:05:00.277Z,17.96
2018-06-05T10:07:29.650Z,17.49
2018-06-05T10:09:58.273Z,15.86
2018-06-05T10:12:27.092Z,15.37
2018-06-05T10:14:55.611Z,16.59
2018-06-05T10:17:24.627Z,16.12
2018-06-05T10:19:53.454Z,14.26
2018-06-05T10:22:22.251Z,15.67
2018-06-05T10:24:51.174Z,16.24
2018-06-05T10:27:20.167Z,14.59
2018-06-05T10:29:49.851Z,13.72
2018-06-05T10:32:18.614Z,14.05
2018-06-05T10:34:47.279Z,14.08
2018-06-05T10:37:15.904Z,14.01
2018-06-05T10:39:44.669Z,14.34
2018-06-05T10:42:13.978Z,13.74
2018-06-05T10:44:42.607Z,14.28
2018-06-05T10:47:11.326Z,14.16
2018-06-05T10:49:40.173Z,14.43
2018-06-05T10:52:09.923Z,14.39
2018-06-05T10:54:38.956Z,14.44
2018-06-05T10:57:07.583Z,14.24
2018-06-05T10:59:36.328Z,14.57
2018-06-05T11:02:05.327Z,16.49
2018-06-05T11:04:33.994Z,17.73
2018-06-05T11:07:03.012Z,20.34
2018-06-05T11:09:31.917Z,22.94
2018-06-05T11:12:00.777Z,21.04
2018-06-05T11:14:29.466Z,20.41
2018-06-05T11:16:58.181Z,20.68
2018-06-05T11:19:27.134Z,20.57
2018-06-05T11:21:56.432Z,21.76
2018-06-05T11:24:25.200Z,22.63
2018-06-05T11:26:54.035Z,21.87
2018-06-05T11:29:22.829Z,23.10
2018-06-05T11:31:51.699Z,23.12
2018-06-05T11:34:20.839Z,21.29
2018-06-05T11:36:50.086Z,22.52
2018-06-05T11:39:18.870Z,23.52
2018-06-05T11:41:47.487Z,21.13
2018-06-05T11:44:16.241Z,21.85
2018-06-05T11:46:44.975Z,21.61
2018-06-05T11:49:13.644Z,21.24
2018-06-05T11:51:43.498Z,20.50
2018-06-05T11:54:12.485Z,20.51
2018-06-05T11:56:41.003Z,24.45
2018-06-05T11:59:09.838Z,21.51
2018-06-05T12:01:38.392Z,21.76
2018-06-05T12:04:07.024Z,21.72
2018-06-05T12:06:35.727Z,23.16
2018-06-05T12:09:07.034Z,20.75
2018-06-05T12:11:35.594Z,20.87
2018-06-05T12:14:04.266Z,22.35
2018-06-05T12:16:33.590Z,25.07
2018-06-05T12:19:02.424Z,24.32
2018-06-05T12:21:31.068Z,23.75
2018-06-05T12:23:59.708Z,23.57
2018-06-05T12:26:28.488Z,24.58
2018-06-05T12:28:57.062Z,24.18
2018-06-05T12:31:26.843Z,25.47
2018-06-05T12:33:55.358Z,25.34
2018-06-05T12:36:23.967Z,27.63
2018-06-05T12:38:52.612Z,26.48
2018-06-05T12:41:21.483Z,26.15
2018-06-05T12:43:50.324Z,25.23
2018-06-05T12:46:19.234Z,27.09
2018-06-05T12:48:48.127Z,28.03
2018-06-05T12:51:16.837Z,27.99
2018-06-05T12:53:45.587Z,27.95
2018-06-05T12:56:14.333Z,28.01
2018-06-05T12:58:43.161Z,28.65
2018-06-05T13:01:11.787Z,28.03
2018-06-05T13:03:40.944Z,26.46
2018-06-05T13:06:09.637Z,26.79
2018-06-05T13:08:38.358Z,26.89
2018-06-05T13:11:07.018Z,27.40
2018-06-05T13:13:35.846Z,28.02
2018-06-05T13:16:05.147Z,28.79
2018-06-05T13:18:33.903Z,26.95
2018-06-05T13:21:02.566Z,27.84
2018-06-05T13:23:31.084Z,28.49
2018-06-05T13:26:01.121Z,29.06
2018-06-05T13:28:29.835Z,30.90
2018-06-05T13:30:58.565Z,32.08
2018-06-05T13:33:27.202Z,32.10
2018-06-05T13:35:55.890Z,31.65
2018-06-05T13:38:25.397Z,31.17
2018-06-05T13:40:53.973Z,30.79
2018-06-05T13:43:23.472Z,32.45
2018-06-05T13:45:52.083Z,32.58
2018-06-05T13:48:21.092Z,32.21
2018-06-05T13:50:49.792Z,30.32
2018-06-05T13:53:18.443Z,30.39
2018-06-05T13:55:47.281Z,29.72
2018-06-05T13:58:16.029Z,28.86
2018-06-05T14:00:45.324Z,29.12
2018-06-05T14:03:13.857Z,28.66
2018-06-05T14:05:42.584Z,29.44
2018-06-05T14:08:11.514Z,29.34
2018-06-05T14:10:40.430Z,29.36
2018-06-05T14:13:09.040Z,29.69
2018-06-05T14:15:37.720Z,30.02
2018-06-05T14:18:06.734Z,29.69
2018-06-05T14:20:35.983Z,30.15
2018-06-05T14:23:05.059Z,29.27
2018-06-05T14:25:33.855Z,29.87
2018-06-05T14:28:02.665Z,29.73
2018-06-05T14:30:31.582Z,30.03
2018-06-05T14:33:00.483Z,31.57
2018-06-05T14:35:29.232Z,32.28
2018-06-05T14:37:57.837Z,30.81
2018-06-05T14:40:26.794Z,30.37
2018-06-05T14:42:55.635Z,30.36
2018-06-05T14:45:24.449Z,30.71
2018-06-05T14:47:53.070Z,30.44
2018-06-05T14:50:21.841Z,30.63
2018-06-05T14:52:50.760Z,30.14
2018-06-05T14:55:19.520Z,30.76
2018-06-05T14:57:48.040Z,31.09
2018-06-05T15:00:16.736Z,31.35
2018-06-05T15:02:45.491Z,32.06
2018-06-05T15:05:14.400Z,32.75
2018-06-05T15:07:43.373Z,31.63
2018-06-05T15:10:12.301Z,31.46
2018-06-05T15:12:41.140Z,31.23
2018-06-05T15:15:10.069Z,31.91
2018-06-05T15:17:38.750Z,32.37
2018-06-05T15:20:07.524Z,31.64
2018-06-05T15:22:36.356Z,31.72
2018-06-05T15:25:05.028Z,32.93
2018-06-05T15:27:33.851Z,31.74
2018-06-05T15:30:02.545Z,32.19
2018-06-05T15:32:31.479Z,34.19
2018-06-05T15:35:00.162Z,34.44
2018-06-05T15:37:28.924Z,34.49
2018-06-05T15:39:57.604Z,34.30
2018-06-05T15:42:26.256Z,34.30
2018-06-05T15:44:55.189Z,33.85
2018-06-05T15:47:24.084Z,34.91
2018-06-05T15:49:52.785Z,35.35
2018-06-05T15:52:21.488Z,35.96
2018-06-05T15:54:50.979Z,35.74
2018-06-05T15:57:19.830Z,34.53
2018-06-05T15:59:48.465Z,34.46
2018-06-05T16:02:17.430Z,35.07
2018-06-05T16:04:46.125Z,37.51
2018-06-05T16:07:14.750Z,38.53
2018-06-05T16:09:43.459Z,38.18
2018-06-05T16:12:12.168Z,39.23
2018-06-05T16:14:40.761Z,37.06
2018-06-05T16:17:09.520Z,36.89
2018-06-05T16:19:38.198Z,36.92
2018-06-05T16:22:06.830Z,36.46
2018-06-05T16:24:35.904Z,35.64
2018-06-05T16:27:04.805Z,36.65
2018-06-05T16:29:34.164Z,37.25
2018-06-05T16:32:02.757Z,37.34
2018-06-05T16:34:31.579Z,37.40
2018-06-05T16:37:01.184Z,38.45
2018-06-05T16:39:29.864Z,39.58
2018-06-05T16:41:58.739Z,39.32
2018-06-05T16:44:27.413Z,39.57
2018-06-05T16:46:56.155Z,40.01
2018-06-05T16:49:25.000Z,39.26
2018-06-05T16:51:53.666Z,38.75
2018-06-05T16:54:22.559Z,38.97
2018-06-05T16:56:51.696Z,40.54
2018-06-05T16:59:20.374Z,40.91
2018-06-05T17:01:48.985Z,40.21
2018-06-05T17:04:17.944Z,39.31
2018-06-05T17:06:46.526Z,40.65
2018-06-05T17:09:15.350Z,41.00
2018-06-05T17:11:44.206Z,43.27
2018-06-05T17:14:12.984Z,43.53
2018-06-05T17:16:41.760Z,43.24
2018-06-05T17:20:13.554Z,43.88
2018-06-05T17:22:42.295Z,46.08
2018-06-05T17:25:11.259Z,45.79
2018-06-05T17:27:39.985Z,46.50
2018-06-05T17:30:09.075Z,46.40
2018-06-05T17:32:37.984Z,47.11
2018-06-05T17:35:06.701Z,46.95
2018-06-05T17:37:35.630Z,47.14
2018-06-05T17:40:05.109Z,46.78
2018-06-05T17:42:33.871Z,47.48
2018-06-05T17:45:03.474Z,48.26
2018-06-05T17:47:32.051Z,48.43
2018-06-05T17:50:00.675Z,47.98
2018-06-05T17:52:29.320Z,47.78
2018-06-05T17:54:57.955Z,48.03
2018-06-05T17:57:26.579Z,48.58
2018-06-05T17:59:55.291Z,47.78
2018-06-05T18:02:24.010Z,48.72
2018-06-05T18:04:52.651Z,48.48
2018-06-05T18:07:21.546Z,49.90
2018-06-05T18:09:50.336Z,51.65
2018-06-05T18:12:19.210Z,51.69
2018-06-05T18:14:48.206Z,53.82
2018-06-05T18:17:17.387Z,55.59
2018-06-05T18:19:46.914Z,55.34
2018-06-05T18:22:15.554Z,55.18
2018-06-05T18:24:44.401Z,55.14
2018-06-05T18:27:13.351Z,56.67
2018-06-05T18:29:42.737Z,56.55
2018-06-05T18:32:11.570Z,56.81
2018-06-05T18:34:40.542Z,57.07
2018-06-05T18:37:09.440Z,56.90
2018-06-05T18:39:39.265Z,58.53
2018-06-05T18:42:08.129Z,59.93
2018-06-05T18:44:36.951Z,59.79
2018-06-05T18:47:05.870Z,58.72
2018-06-05T18:49:34.621Z,59.68
2018-06-05T18:52:03.426Z,59.60
2018-06-05T18:54:32.095Z,59.77
2018-06-05T18:57:00.786Z,59.99
2018-06-05T18:59:29.575Z,59.91
2018-06-05T19:01:58.244Z,60.17
2018-06-05T19:04:27.286Z,60.93
2018-06-05T19:06:56.123Z,61.57
2018-06-05T19:09:24.999Z,61.30
2018-06-05T19:11:54.132Z,61.98
2018-06-05T19:14:22.135Z,61.52
2018-06-05T19:16:51.484Z,60.26
2018-06-05T19:19:19.460Z,60.13
2018-06-05T19:21:47.339Z,60.97
2018-06-05T19:24:16.204Z,60.89
2018-06-05T19:26:45.633Z,62.56
2018-06-05T19:29:14.511Z,62.72
2018-06-05T19:31:42.436Z,61.87
2018-06-05T19:34:10.389Z,62.24
2018-06-05T19:36:39.699Z,61.94
2018-06-05T19:39:08.727Z,61.23
2018-06-05T19:41:37.377Z,59.53
2018-06-05T19:44:05.680Z,60.04
2018-06-05T19:46:35.357Z,59.88
2018-06-05T19:49:03.217Z,61.49
2018-06-05T19:51:31.383Z,60.50
2018-06-05T19:53:59.996Z,59.69
2018-06-05T19:59:09.066Z,61.03
2018-06-05T20:01:37.960Z,59.61
2018-06-05T20:04:06.139Z,60.87
2018-06-05T20:06:34.300Z,61.38
2018-06-05T20:09:02.335Z,64.94
2018-06-05T20:11:30.085Z,67.15
2018-06-05T20:13:58.187Z,67.20
2018-06-05T20:16:26.079Z,67.96
2018-06-05T20:18:53.965Z,68.52
2018-06-05T20:21:21.873Z,69.21
2018-06-05T20:23:49.725Z,70.81
2018-06-05T20:26:17.646Z,72.39
2018-06-05T20:28:45.706Z,72.50
2018-06-05T20:31:13.773Z,73.36
2018-06-05T20:33:41.674Z,74.13
2018-06-05T20:36:09.521Z,74.64
2018-06-05T20:39:52.496Z,75.36
2018-06-05T20:42:20.405Z,75.70
2018-06-05T20:44:48.236Z,76.03
2018-06-05T20:47:16.254Z,75.37
2018-06-05T20:49:44.047Z,77.31
2018-06-05T20:52:11.932Z,77.76
2018-06-05T20:54:40.334Z,78.27
2018-06-05T20:57:08.541Z,78.45
2018-06-05T20:59:36.711Z,79.21
2018-06-05T21:02:04.618Z,79.92
2018-06-05T21:04:32.942Z,79.66
2018-06-05T21:07:00.810Z,80.95
2018-06-05T21:09:30.731Z,81.30
2018-06-05T21:11:58.695Z,80.83
2018-06-05T21:14:26.531Z,81.34
2018-06-05T21:16:54.450Z,81.85
2018-06-05T21:19:22.607Z,83.19
2018-06-05T21:21:50.459Z,82.76
2018-06-05T21:24:18.282Z,82.26
2018-06-05T21:26:46.035Z,82.58
2018-06-05T21:29:13.912Z,82.64
2018-06-05T21:31:41.741Z,83.01
2018-06-05T21:34:09.624Z,83.66
2018-06-05T21:36:37.706Z,83.50
2018-06-05T21:39:07.409Z,83.52
2018-06-05T21:41:35.332Z,83.79
2018-06-05T21:44:03.142Z,84.30
2018-06-05T21:46:31.642Z,83.96
2018-06-05T21:48:59.554Z,84.18
2018-06-05T21:51:27.314Z,83.80
2018-06-05T21:53:55.264Z,84.10
2018-06-05T21:56:23.465Z,84.27
2018-06-05T21:58:51.376Z,85.41
2018-06-05T22:01:19.192Z,85.11
2018-06-05T22:03:46.976Z,85.54
2018-06-05T22:06:14.685Z,85.93
2018-06-05T22:08:42.522Z,85.79
2018-06-05T22:11:11.217Z,85.93
2018-06-05T22:13:38.977Z,86.24
2018-06-05T22:16:07.482Z,86.43
2018-06-05T22:18:35.446Z,85.83
2018-06-05T22:21:03.152Z,85.52
2018-06-05T22:23:30.995Z,85.63
2018-06-05T22:25:58.806Z,86.07
2018-06-05T22:28:26.750Z,85.76
2018-06-05T22:30:54.520Z,85.15
2018-06-05T22:33:22.372Z,85.74
2018-06-05T22:35:50.141Z,85.75
2018-06-05T22:38:25.237Z,86.06
2018-06-05T22:40:52.970Z,86.08
2018-06-05T22:43:20.841Z,85.87
2018-06-05T22:45:48.646Z,85.48
2018-06-05T22:48:16.603Z,86.23
2018-06-05T22:50:44.327Z,85.43
2018-06-05T22:53:12.144Z,85.70
2018-06-05T22:55:39.859Z,85.94
2018-06-05T22:58:07.650Z,86.00
2018-06-05T23:00:35.363Z,86.78
2018-06-05T23:03:03.174Z,86.90
2018-06-05T23:05:31.635Z,86.61
2018-06-05T23:07:59.600Z,86.68
2018-06-05T23:10:27.499Z,85.98
2018-06-05T23:12:55.273Z,86.64
2018-06-05T23:15:23.131Z,86.31
2018-06-05T23:17:50.836Z,87.27
2018-06-05T23:20:19.027Z,87.12
2018-06-05T23:22:46.855Z,87.03
2018-06-05T23:25:14.841Z,87.17
2018-06-05T23:27:42.746Z,87.73
2018-06-05T23:30:10.941Z,87.66
2018-06-05T23:32:39.092Z,87.24
2018-06-05T23:35:07.028Z,87.23
2018-06-05T23:37:35.006Z,87.09
2018-06-05T23:40:02.986Z,87.18
2018-06-05T23:42:30.797Z,87.12
2018-06-05T23:44:58.553Z,87.76
2018-06-05T23:47:26.413Z,87.44
2018-06-05T23:49:54.207Z,87.53
2018-06-05T23:52:22.183Z,87.86
2018-06-05T23:54:50.195Z,87.70
2018-06-05T23:57:18.646Z,87.51
2018-06-05T23:59:46.496Z,88.07
